sensor_id;sensor_type;location;lat;lon;timestamp;P1;durP1;ratioP1;P2;durP2;ratioP2
46931;SDS011;32670;51.464;11.964;2022-09-09T00:02:01;0.93;;;0.80;;
46931;SDS011;32670;51.464;11.964;2022-09-09T00:07:53;1.23;;;0.60;;
46931;SDS011;32670;51.464;11.964;2022-09-09T00:10:36;0.77;;;0.73;;
46931;SDS011;32670;51.464;11.964;2022-09-09T00:13:18;1.13;;;0.70;;
46931;SDS011;32670;51.464;11.964;2022-09-09T00:18:50;3.73;;;0.83;;
46931;SDS011;32670;51.464;11.964;2022-09-09T00:21:33;1.13;;;0.70;;
46931;SDS011;32670;51.464;11.964;2022-09-09T00:24:04;1.93;;;0.90;;
46931;SDS011;32670;51.464;11.964;2022-09-09T00:26:51;1.47;;;0.87;;
46931;SDS011;32670;51.464;11.964;2022-09-09T00:30:12;1.23;;;0.80;;
46931;SDS011;32670;51.464;11.964;2022-09-09T00:32:19;1.43;;;0.97;;
46931;SDS011;32670;51.464;11.964;2022-09-09T00:34:56;1.90;;;0.70;;
46931;SDS011;32670;51.464;11.964;2022-09-09T00:37:25;2.57;;;1.00;;
46931;SDS011;32670;51.464;11.964;2022-09-09T00:39:54;2.33;;;0.90;;
46931;SDS011;32670;51.464;11.964;2022-09-09T00:42:26;1.47;;;0.90;;
46931;SDS011;32670;51.464;11.964;2022-09-09T00:45:12;2.10;;;1.00;;
46931;SDS011;32670;51.464;11.964;2022-09-09T00:47:53;1.20;;;0.80;;
46931;SDS011;32670;51.464;11.964;2022-09-09T00:50:24;3.43;;;1.20;;
46931;SDS011;32670;51.464;11.964;2022-09-09T00:56:20;1.93;;;0.83;;
46931;SDS011;32670;51.464;11.964;2022-09-09T00:59:28;2.17;;;0.93;;
46931;SDS011;32670;51.464;11.964;2022-09-09T01:02:13;1.90;;;1.10;;
46931;SDS011;32670;51.464;11.964;2022-09-09T01:04:47;1.37;;;0.83;;
46931;SDS011;32670;51.464;11.964;2022-09-09T01:07:16;2.43;;;1.00;;
46931;SDS011;32670;51.464;11.964;2022-09-09T01:10:03;1.13;;;0.77;;
46931;SDS011;32670;51.464;11.964;2022-09-09T01:12:42;1.37;;;0.80;;
46931;SDS011;32670;51.464;11.964;2022-09-09T01:17:50;1.23;;;0.70;;
46931;SDS011;32670;51.464;11.964;2022-09-09T01:20:23;1.47;;;0.80;;
46931;SDS011;32670;51.464;11.964;2022-09-09T01:23:02;1.23;;;0.90;;
46931;SDS011;32670;51.464;11.964;2022-09-09T01:28:09;2.07;;;0.90;;
46931;SDS011;32670;51.464;11.964;2022-09-09T01:30:40;1.13;;;0.90;;
46931;SDS011;32670;51.464;11.964;2022-09-09T01:33:07;3.80;;;1.17;;
46931;SDS011;32670;51.464;11.964;2022-09-09T01:35:52;2.00;;;0.90;;
46931;SDS011;32670;51.464;11.964;2022-09-09T01:38:22;2.20;;;1.00;;
46931;SDS011;32670;51.464;11.964;2022-09-09T01:40:49;1.33;;;0.80;;
46931;SDS011;32670;51.464;11.964;2022-09-09T01:43:17;1.47;;;1.10;;
46931;SDS011;32670;51.464;11.964;2022-09-09T01:45:48;1.30;;;0.90;;
46931;SDS011;32670;51.464;11.964;2022-09-09T01:48:17;2.50;;;1.00;;
46931;SDS011;32670;51.464;11.964;2022-09-09T01:50:44;1.77;;;0.93;;
46931;SDS011;32670;51.464;11.964;2022-09-09T01:53:09;2.10;;;0.90;;
46931;SDS011;32670;51.464;11.964;2022-09-09T01:55:40;1.67;;;1.00;;
46931;SDS011;32670;51.464;11.964;2022-09-09T02:01:09;2.23;;;0.93;;
46931;SDS011;32670;51.464;11.964;2022-09-09T02:03:50;2.03;;;0.87;;
46931;SDS011;32670;51.464;11.964;2022-09-09T02:06:52;2.27;;;1.07;;
46931;SDS011;32670;51.464;11.964;2022-09-09T02:09:10;3.30;;;0.87;;
46931;SDS011;32670;51.464;11.964;2022-09-09T02:11:38;1.57;;;1.00;;
46931;SDS011;32670;51.464;11.964;2022-09-09T02:14:10;2.53;;;1.00;;
46931;SDS011;32670;51.464;11.964;2022-09-09T02:16:40;3.27;;;1.10;;
46931;SDS011;32670;51.464;11.964;2022-09-09T02:19:16;2.33;;;1.00;;
46931;SDS011;32670;51.464;11.964;2022-09-09T02:21:50;1.80;;;0.80;;
46931;SDS011;32670;51.464;11.964;2022-09-09T02:24:18;2.50;;;1.20;;
46931;SDS011;32670;51.464;11.964;2022-09-09T02:26:44;2.30;;;1.03;;
46931;SDS011;32670;51.464;11.964;2022-09-09T02:29:20;1.73;;;1.13;;
46931;SDS011;32670;51.464;11.964;2022-09-09T02:31:48;1.77;;;0.90;;
46931;SDS011;32670;51.464;11.964;2022-09-09T02:34:16;3.37;;;1.00;;
46931;SDS011;32670;51.464;11.964;2022-09-09T02:36:43;2.10;;;0.83;;
46931;SDS011;32670;51.464;11.964;2022-09-09T02:39:11;1.17;;;0.80;;
46931;SDS011;32670;51.464;11.964;2022-09-09T02:41:39;1.37;;;0.97;;
46931;SDS011;32670;51.464;11.964;2022-09-09T02:44:16;3.13;;;1.10;;
46931;SDS011;32670;51.464;11.964;2022-09-09T02:49:19;2.03;;;1.00;;
46931;SDS011;32670;51.464;11.964;2022-09-09T02:54:30;2.33;;;1.20;;
46931;SDS011;32670;51.464;11.964;2022-09-09T02:57:02;2.60;;;1.07;;
46931;SDS011;32670;51.464;11.964;2022-09-09T02:59:37;4.30;;;1.20;;
46931;SDS011;32670;51.464;11.964;2022-09-09T03:02:03;2.37;;;1.03;;
46931;SDS011;32670;51.464;11.964;2022-09-09T03:04:29;1.60;;;0.90;;
46931;SDS011;32670;51.464;11.964;2022-09-09T03:06:56;1.80;;;1.00;;
46931;SDS011;32670;51.464;11.964;2022-09-09T03:09:22;3.40;;;1.00;;
46931;SDS011;32670;51.464;11.964;2022-09-09T03:11:48;2.73;;;1.13;;
46931;SDS011;32670;51.464;11.964;2022-09-09T03:14:14;1.40;;;1.00;;
46931;SDS011;32670;51.464;11.964;2022-09-09T03:16:40;2.63;;;1.20;;
46931;SDS011;32670;51.464;11.964;2022-09-09T03:19:07;2.83;;;1.20;;
46931;SDS011;32670;51.464;11.964;2022-09-09T03:21:33;2.43;;;1.20;;
46931;SDS011;32670;51.464;11.964;2022-09-09T03:23:59;1.47;;;1.00;;
46931;SDS011;32670;51.464;11.964;2022-09-09T03:26:25;3.53;;;1.20;;
46931;SDS011;32670;51.464;11.964;2022-09-09T03:28:50;2.20;;;1.20;;
46931;SDS011;32670;51.464;11.964;2022-09-09T03:31:16;2.23;;;1.30;;
46931;SDS011;32670;51.464;11.964;2022-09-09T03:33:43;3.30;;;1.30;;
46931;SDS011;32670;51.464;11.964;2022-09-09T03:36:08;2.90;;;1.40;;
46931;SDS011;32670;51.464;11.964;2022-09-09T03:38:34;2.13;;;1.50;;
46931;SDS011;32670;51.464;11.964;2022-09-09T03:41:00;4.67;;;1.80;;
46931;SDS011;32670;51.464;11.964;2022-09-09T03:43:26;2.90;;;1.67;;
46931;SDS011;32670;51.464;11.964;2022-09-09T03:45:52;3.13;;;1.40;;
46931;SDS011;32670;51.464;11.964;2022-09-09T03:48:21;4.43;;;1.50;;
46931;SDS011;32670;51.464;11.964;2022-09-09T03:50:47;3.10;;;1.70;;
46931;SDS011;32670;51.464;11.964;2022-09-09T03:53:14;2.60;;;1.63;;
46931;SDS011;32670;51.464;11.964;2022-09-09T03:55:45;4.13;;;1.40;;
46931;SDS011;32670;51.464;11.964;2022-09-09T03:58:12;4.40;;;1.37;;
46931;SDS011;32670;51.464;11.964;2022-09-09T04:00:38;4.93;;;1.40;;
46931;SDS011;32670;51.464;11.964;2022-09-09T04:03:07;2.20;;;1.37;;
46931;SDS011;32670;51.464;11.964;2022-09-09T04:05:33;3.17;;;1.60;;
46931;SDS011;32670;51.464;11.964;2022-09-09T04:07:59;2.30;;;1.20;;
46931;SDS011;32670;51.464;11.964;2022-09-09T04:10:25;2.17;;;1.10;;
46931;SDS011;32670;51.464;11.964;2022-09-09T04:12:51;2.43;;;1.20;;
46931;SDS011;32670;51.464;11.964;2022-09-09T04:15:17;1.60;;;1.17;;
46931;SDS011;32670;51.464;11.964;2022-09-09T04:17:43;2.63;;;1.13;;
46931;SDS011;32670;51.464;11.964;2022-09-09T04:20:09;2.77;;;1.20;;
46931;SDS011;32670;51.464;11.964;2022-09-09T04:22:37;4.27;;;1.40;;
46931;SDS011;32670;51.464;11.964;2022-09-09T04:25:03;1.30;;;1.20;;
46931;SDS011;32670;51.464;11.964;2022-09-09T04:27:30;2.60;;;1.27;;
46931;SDS011;32670;51.464;11.964;2022-09-09T04:29:56;2.47;;;1.10;;
46931;SDS011;32670;51.464;11.964;2022-09-09T04:32:22;2.73;;;1.50;;
46931;SDS011;32670;51.464;11.964;2022-09-09T04:34:48;2.33;;;1.50;;
46931;SDS011;32670;51.464;11.964;2022-09-09T04:37:13;4.37;;;1.30;;
46931;SDS011;32670;51.464;11.964;2022-09-09T04:39:39;1.93;;;1.40;;
46931;SDS011;32670;51.464;11.964;2022-09-09T04:42:04;3.53;;;1.40;;
46931;SDS011;32670;51.464;11.964;2022-09-09T04:44:30;2.10;;;1.30;;
46931;SDS011;32670;51.464;11.964;2022-09-09T04:46:55;3.73;;;1.30;;
46931;SDS011;32670;51.464;11.964;2022-09-09T04:49:21;4.70;;;1.47;;
46931;SDS011;32670;51.464;11.964;2022-09-09T04:51:48;3.83;;;1.23;;
46931;SDS011;32670;51.464;11.964;2022-09-09T04:54:14;4.53;;;1.57;;
46931;SDS011;32670;51.464;11.964;2022-09-09T04:56:39;3.07;;;1.50;;
46931;SDS011;32670;51.464;11.964;2022-09-09T04:59:07;3.33;;;1.67;;
46931;SDS011;32670;51.464;11.964;2022-09-09T05:01:32;4.23;;;1.47;;
46931;SDS011;32670;51.464;11.964;2022-09-09T05:03:58;3.77;;;1.43;;
46931;SDS011;32670;51.464;11.964;2022-09-09T05:06:23;3.33;;;1.53;;
46931;SDS011;32670;51.464;11.964;2022-09-09T05:08:49;2.43;;;1.73;;
46931;SDS011;32670;51.464;11.964;2022-09-09T05:11:16;5.43;;;1.87;;
46931;SDS011;32670;51.464;11.964;2022-09-09T05:13:43;3.23;;;1.83;;
46931;SDS011;32670;51.464;11.964;2022-09-09T05:16:09;4.17;;;1.83;;
46931;SDS011;32670;51.464;11.964;2022-09-09T05:18:36;3.33;;;1.63;;
46931;SDS011;32670;51.464;11.964;2022-09-09T05:21:05;3.93;;;2.13;;
46931;SDS011;32670;51.464;11.964;2022-09-09T05:23:31;5.20;;;2.10;;
46931;SDS011;32670;51.464;11.964;2022-09-09T05:26:00;3.57;;;1.83;;
46931;SDS011;32670;51.464;11.964;2022-09-09T05:28:26;2.77;;;1.60;;
46931;SDS011;32670;51.464;11.964;2022-09-09T05:30:56;5.47;;;2.07;;
46931;SDS011;32670;51.464;11.964;2022-09-09T05:33:22;2.23;;;1.43;;
46931;SDS011;32670;51.464;11.964;2022-09-09T05:35:54;4.00;;;1.33;;
46931;SDS011;32670;51.464;11.964;2022-09-09T05:38:31;5.17;;;2.13;;
46931;SDS011;32670;51.464;11.964;2022-09-09T05:41:00;2.17;;;1.50;;
46931;SDS011;32670;51.464;11.964;2022-09-09T05:43:27;3.23;;;1.40;;
46931;SDS011;32670;51.464;11.964;2022-09-09T05:46:00;2.70;;;1.47;;
46931;SDS011;32670;51.464;11.964;2022-09-09T05:48:29;2.20;;;1.20;;
46931;SDS011;32670;51.464;11.964;2022-09-09T05:50:55;5.73;;;1.30;;
46931;SDS011;32670;51.464;11.964;2022-09-09T05:53:21;3.17;;;1.10;;
46931;SDS011;32670;51.464;11.964;2022-09-09T05:55:47;2.47;;;1.27;;
46931;SDS011;32670;51.464;11.964;2022-09-09T05:58:13;4.30;;;1.20;;
46931;SDS011;32670;51.464;11.964;2022-09-09T06:00:39;2.57;;;1.20;;
46931;SDS011;32670;51.464;11.964;2022-09-09T06:03:05;2.53;;;1.40;;
46931;SDS011;32670;51.464;11.964;2022-09-09T06:05:30;3.73;;;1.30;;
46931;SDS011;32670;51.464;11.964;2022-09-09T06:07:55;2.23;;;1.30;;
46931;SDS011;32670;51.464;11.964;2022-09-09T06:10:21;1.27;;;1.00;;
46931;SDS011;32670;51.464;11.964;2022-09-09T06:12:46;2.37;;;1.10;;
46931;SDS011;32670;51.464;11.964;2022-09-09T06:15:12;2.47;;;1.10;;
46931;SDS011;32670;51.464;11.964;2022-09-09T06:17:37;2.03;;;1.00;;
46931;SDS011;32670;51.464;11.964;2022-09-09T06:20:04;2.40;;;1.30;;
46931;SDS011;32670;51.464;11.964;2022-09-09T06:22:30;2.70;;;1.13;;
46931;SDS011;32670;51.464;11.964;2022-09-09T06:24:55;3.63;;;1.50;;
46931;SDS011;32670;51.464;11.964;2022-09-09T06:27:21;1.67;;;1.20;;
46931;SDS011;32670;51.464;11.964;2022-09-09T06:29:46;1.80;;;1.10;;
46931;SDS011;32670;51.464;11.964;2022-09-09T06:32:13;2.80;;;1.13;;
46931;SDS011;32670;51.464;11.964;2022-09-09T06:34:38;7.47;;;1.67;;
46931;SDS011;32670;51.464;11.964;2022-09-09T06:37:04;2.40;;;1.23;;
46931;SDS011;32670;51.464;11.964;2022-09-09T06:39:31;4.13;;;1.23;;
46931;SDS011;32670;51.464;11.964;2022-09-09T06:41:56;2.83;;;1.53;;
46931;SDS011;32670;51.464;11.964;2022-09-09T06:44:23;2.20;;;1.40;;
46931;SDS011;32670;51.464;11.964;2022-09-09T06:46:51;3.73;;;1.13;;
46931;SDS011;32670;51.464;11.964;2022-09-09T06:49:17;3.23;;;1.20;;
46931;SDS011;32670;51.464;11.964;2022-09-09T06:51:42;2.63;;;1.30;;
46931;SDS011;32670;51.464;11.964;2022-09-09T06:54:08;3.53;;;1.40;;
46931;SDS011;32670;51.464;11.964;2022-09-09T06:56:36;3.43;;;1.63;;
46931;SDS011;32670;51.464;11.964;2022-09-09T06:59:03;7.03;;;1.50;;
46931;SDS011;32670;51.464;11.964;2022-09-09T07:01:32;3.10;;;1.33;;
46931;SDS011;32670;51.464;11.964;2022-09-09T07:03:59;5.43;;;1.87;;
46931;SDS011;32670;51.464;11.964;2022-09-09T07:06:29;8.13;;;1.77;;
46931;SDS011;32670;51.464;11.964;2022-09-09T07:08:59;6.37;;;2.00;;
46931;SDS011;32670;51.464;11.964;2022-09-09T07:11:29;5.03;;;1.80;;
46931;SDS011;32670;51.464;11.964;2022-09-09T07:13:57;4.10;;;1.63;;
46931;SDS011;32670;51.464;11.964;2022-09-09T07:16:24;4.07;;;1.57;;
46931;SDS011;32670;51.464;11.964;2022-09-09T07:18:51;5.50;;;1.83;;
46931;SDS011;32670;51.464;11.964;2022-09-09T07:21:18;4.03;;;1.50;;
46931;SDS011;32670;51.464;11.964;2022-09-09T07:23:45;4.30;;;1.63;;
46931;SDS011;32670;51.464;11.964;2022-09-09T07:26:16;8.50;;;2.77;;
46931;SDS011;32670;51.464;11.964;2022-09-09T07:28:44;6.70;;;2.30;;
46931;SDS011;32670;51.464;11.964;2022-09-09T07:31:20;5.17;;;2.23;;
46931;SDS011;32670;51.464;11.964;2022-09-09T07:33:49;5.27;;;2.13;;
46931;SDS011;32670;51.464;11.964;2022-09-09T07:36:16;5.53;;;1.70;;
46931;SDS011;32670;51.464;11.964;2022-09-09T07:38:51;5.80;;;1.83;;
46931;SDS011;32670;51.464;11.964;2022-09-09T07:41:20;7.30;;;2.40;;
46931;SDS011;32670;51.464;11.964;2022-09-09T07:43:50;5.10;;;3.00;;
46931;SDS011;32670;51.464;11.964;2022-09-09T07:46:17;8.03;;;3.10;;
46931;SDS011;32670;51.464;11.964;2022-09-09T07:48:47;7.37;;;3.83;;
46931;SDS011;32670;51.464;11.964;2022-09-09T07:51:18;9.73;;;7.20;;
46931;SDS011;32670;51.464;11.964;2022-09-09T07:53:51;9.00;;;5.43;;
46931;SDS011;32670;51.464;11.964;2022-09-09T07:56:18;11.63;;;7.73;;
46931;SDS011;32670;51.464;11.964;2022-09-09T07:58:46;8.30;;;7.47;;
46931;SDS011;32670;51.464;11.964;2022-09-09T08:01:13;9.43;;;7.93;;
46931;SDS011;32670;51.464;11.964;2022-09-09T08:03:44;9.40;;;7.60;;
46931;SDS011;32670;51.464;11.964;2022-09-09T08:06:11;15.40;;;11.83;;
46931;SDS011;32670;51.464;11.964;2022-09-09T08:08:37;16.70;;;11.80;;
46931;SDS011;32670;51.464;11.964;2022-09-09T08:11:22;16.03;;;13.77;;
46931;SDS011;32670;51.464;11.964;2022-09-09T08:13:50;12.73;;;9.50;;
46931;SDS011;32670;51.464;11.964;2022-09-09T08:16:18;14.47;;;11.93;;
46931;SDS011;32670;51.464;11.964;2022-09-09T08:18:46;17.77;;;15.03;;
46931;SDS011;32670;51.464;11.964;2022-09-09T08:21:14;13.97;;;12.23;;
46931;SDS011;32670;51.464;11.964;2022-09-09T08:23:43;13.90;;;12.13;;
46931;SDS011;32670;51.464;11.964;2022-09-09T08:26:14;17.43;;;14.70;;
46931;SDS011;32670;51.464;11.964;2022-09-09T08:28:41;17.80;;;15.93;;
46931;SDS011;32670;51.464;11.964;2022-09-09T08:31:09;17.67;;;15.80;;
46931;SDS011;32670;51.464;11.964;2022-09-09T08:33:40;16.63;;;14.07;;
46931;SDS011;32670;51.464;11.964;2022-09-09T08:36:06;24.93;;;22.37;;
46931;SDS011;32670;51.464;11.964;2022-09-09T08:38:34;23.53;;;21.23;;
46931;SDS011;32670;51.464;11.964;2022-09-09T08:41:10;21.33;;;19.13;;
46931;SDS011;32670;51.464;11.964;2022-09-09T08:44:06;21.70;;;18.20;;
46931;SDS011;32670;51.464;11.964;2022-09-09T08:52:14;24.57;;;21.40;;
46931;SDS011;32670;51.464;11.964;2022-09-09T08:54:45;27.70;;;24.87;;
46931;SDS011;32670;51.464;11.964;2022-09-09T08:57:13;27.07;;;24.30;;
46931;SDS011;32670;51.464;11.964;2022-09-09T08:59:43;20.07;;;17.90;;
46931;SDS011;32670;51.464;11.964;2022-09-09T09:02:16;30.03;;;26.80;;
46931;SDS011;32670;51.464;11.964;2022-09-09T09:05:00;31.50;;;28.20;;
46931;SDS011;32670;51.464;11.964;2022-09-09T09:07:40;26.73;;;23.13;;
46931;SDS011;32670;51.464;11.964;2022-09-09T09:10:18;25.43;;;22.73;;
46931;SDS011;32670;51.464;11.964;2022-09-09T09:13:15;26.57;;;23.97;;
46931;SDS011;32670;51.464;11.964;2022-09-09T09:15:55;22.30;;;19.87;;
46931;SDS011;32670;51.464;11.964;2022-09-09T09:18:27;27.33;;;24.33;;
46931;SDS011;32670;51.464;11.964;2022-09-09T09:21:04;29.73;;;26.77;;
46931;SDS011;32670;51.464;11.964;2022-09-09T09:23:42;28.30;;;25.53;;
46931;SDS011;32670;51.464;11.964;2022-09-09T09:26:21;29.30;;;26.20;;
46931;SDS011;32670;51.464;11.964;2022-09-09T09:28:52;28.53;;;25.53;;
46931;SDS011;32670;51.464;11.964;2022-09-09T09:31:21;35.43;;;28.73;;
46931;SDS011;32670;51.464;11.964;2022-09-09T09:36:23;32.90;;;29.00;;
46931;SDS011;32670;51.464;11.964;2022-09-09T09:39:07;25.73;;;21.00;;
46931;SDS011;32670;51.464;11.964;2022-09-09T09:41:35;22.97;;;19.80;;
46931;SDS011;32670;51.464;11.964;2022-09-09T09:44:03;16.90;;;15.17;;
46931;SDS011;32670;51.464;11.964;2022-09-09T09:46:30;17.40;;;14.93;;
46931;SDS011;32670;51.464;11.964;2022-09-09T09:49:00;18.23;;;16.43;;
46931;SDS011;32670;51.464;11.964;2022-09-09T09:51:27;19.70;;;17.60;;
46931;SDS011;32670;51.464;11.964;2022-09-09T09:54:01;22.53;;;20.23;;
46931;SDS011;32670;51.464;11.964;2022-09-09T09:56:34;21.07;;;18.97;;
46931;SDS011;32670;51.464;11.964;2022-09-09T09:59:00;31.97;;;28.87;;
46931;SDS011;32670;51.464;11.964;2022-09-09T10:01:29;25.30;;;22.77;;
46931;SDS011;32670;51.464;11.964;2022-09-09T10:04:18;17.87;;;16.00;;
46931;SDS011;32670;51.464;11.964;2022-09-09T10:06:45;32.77;;;29.50;;
46931;SDS011;32670;51.464;11.964;2022-09-09T10:09:27;31.87;;;28.50;;
46931;SDS011;32670;51.464;11.964;2022-09-09T10:12:00;26.00;;;23.43;;
46931;SDS011;32670;51.464;11.964;2022-09-09T10:14:52;32.43;;;29.27;;
46931;SDS011;32670;51.464;11.964;2022-09-09T10:20:43;35.80;;;32.37;;
46931;SDS011;32670;51.464;11.964;2022-09-09T10:23:42;29.77;;;26.83;;
46931;SDS011;32670;51.464;11.964;2022-09-09T10:26:31;32.27;;;28.93;;
46931;SDS011;32670;51.464;11.964;2022-09-09T10:29:24;29.93;;;27.10;;
46931;SDS011;32670;51.464;11.964;2022-09-09T10:32:22;24.10;;;21.70;;
46931;SDS011;32670;51.464;11.964;2022-09-09T10:37:58;30.27;;;27.33;;
46931;SDS011;32670;51.464;11.964;2022-09-09T10:49:23;36.80;;;33.13;;
46931;SDS011;32670;51.464;11.964;2022-09-09T10:57:22;35.37;;;31.87;;
46931;SDS011;32670;51.464;11.964;2022-09-09T10:59:57;35.63;;;32.27;;
46931;SDS011;32670;51.464;11.964;2022-09-09T11:02:29;37.90;;;34.27;;
46931;SDS011;32670;51.464;11.964;2022-09-09T11:05:10;37.83;;;34.20;;
46931;SDS011;32670;51.464;11.964;2022-09-09T11:07:52;44.27;;;39.93;;
46931;SDS011;32670;51.464;11.964;2022-09-09T11:10:30;42.97;;;38.60;;
46931;SDS011;32670;51.464;11.964;2022-09-09T11:13:04;52.87;;;47.67;;
46931;SDS011;32670;51.464;11.964;2022-09-09T11:15:36;46.57;;;42.17;;
46931;SDS011;32670;51.464;11.964;2022-09-09T11:18:06;48.70;;;44.10;;
46931;SDS011;32670;51.464;11.964;2022-09-09T11:20:38;37.57;;;33.97;;
46931;SDS011;32670;51.464;11.964;2022-09-09T11:23:13;50.67;;;45.60;;
46931;SDS011;32670;51.464;11.964;2022-09-09T11:25:47;47.87;;;43.17;;
46931;SDS011;32670;51.464;11.964;2022-09-09T11:33:30;50.03;;;45.17;;
46931;SDS011;32670;51.464;11.964;2022-09-09T11:36:12;46.57;;;42.03;;
46931;SDS011;32670;51.464;11.964;2022-09-09T11:42:19;42.07;;;37.77;;
46931;SDS011;32670;51.464;11.964;2022-09-09T11:44:47;43.93;;;39.53;;
46931;SDS011;32670;51.464;11.964;2022-09-09T11:49:51;51.33;;;46.20;;
46931;SDS011;32670;51.464;11.964;2022-09-09T11:52:22;51.07;;;46.07;;
46931;SDS011;32670;51.464;11.964;2022-09-09T11:54:48;50.43;;;45.17;;
46931;SDS011;32670;51.464;11.964;2022-09-09T11:57:34;42.10;;;38.10;;
46931;SDS011;32670;51.464;11.964;2022-09-09T12:00:02;46.67;;;42.07;;
46931;SDS011;32670;51.464;11.964;2022-09-09T12:02:30;47.20;;;42.40;;
46931;SDS011;32670;51.464;11.964;2022-09-09T12:07:51;44.60;;;40.13;;
46931;SDS011;32670;51.464;11.964;2022-09-09T12:10:24;46.77;;;41.87;;
46931;SDS011;32670;51.464;11.964;2022-09-09T12:12:53;47.23;;;42.63;;
46931;SDS011;32670;51.464;11.964;2022-09-09T12:15:21;44.37;;;40.00;;
46931;SDS011;32670;51.464;11.964;2022-09-09T12:17:51;46.47;;;41.97;;
46931;SDS011;32670;51.464;11.964;2022-09-09T12:20:22;45.80;;;41.53;;
46931;SDS011;32670;51.464;11.964;2022-09-09T12:22:51;50.97;;;45.93;;
46931;SDS011;32670;51.464;11.964;2022-09-09T12:31:00;43.73;;;39.50;;
46931;SDS011;32670;51.464;11.964;2022-09-09T12:33:36;46.87;;;42.10;;
46931;SDS011;32670;51.464;11.964;2022-09-09T12:36:07;51.33;;;46.23;;
46931;SDS011;32670;51.464;11.964;2022-09-09T12:38:39;53.63;;;48.30;;
46931;SDS011;32670;51.464;11.964;2022-09-09T12:41:06;51.80;;;46.83;;
46931;SDS011;32670;51.464;11.964;2022-09-09T12:43:47;52.93;;;47.73;;
46931;SDS011;32670;51.464;11.964;2022-09-09T12:46:31;48.87;;;43.87;;
46931;SDS011;32670;51.464;11.964;2022-09-09T12:49:05;40.50;;;36.67;;
46931;SDS011;32670;51.464;11.964;2022-09-09T12:51:46;47.43;;;42.83;;
46931;SDS011;32670;51.464;11.964;2022-09-09T12:54:14;44.87;;;40.43;;
46931;SDS011;32670;51.464;11.964;2022-09-09T12:56:44;52.93;;;47.73;;
46931;SDS011;32670;51.464;11.964;2022-09-09T12:59:21;43.57;;;39.07;;
46931;SDS011;32670;51.464;11.964;2022-09-09T13:01:59;44.13;;;39.60;;
46931;SDS011;32670;51.464;11.964;2022-09-09T13:04:24;50.53;;;45.53;;
46931;SDS011;32670;51.464;11.964;2022-09-09T13:06:50;39.80;;;35.90;;
46931;SDS011;32670;51.464;11.964;2022-09-09T13:09:17;38.63;;;34.83;;
46931;SDS011;32670;51.464;11.964;2022-09-09T13:11:43;41.83;;;37.50;;
46931;SDS011;32670;51.464;11.964;2022-09-09T13:14:16;38.43;;;34.43;;
46931;SDS011;32670;51.464;11.964;2022-09-09T13:16:53;44.77;;;40.30;;
46931;SDS011;32670;51.464;11.964;2022-09-09T13:19:24;47.03;;;42.50;;
46931;SDS011;32670;51.464;11.964;2022-09-09T13:21:52;43.13;;;38.63;;
46931;SDS011;32670;51.464;11.964;2022-09-09T13:24:26;36.60;;;33.10;;
46931;SDS011;32670;51.464;11.964;2022-09-09T13:27:00;41.10;;;36.83;;
46931;SDS011;32670;51.464;11.964;2022-09-09T13:29:28;36.93;;;33.43;;
46931;SDS011;32670;51.464;11.964;2022-09-09T13:32:03;44.73;;;40.17;;
46931;SDS011;32670;51.464;11.964;2022-09-09T13:34:31;40.93;;;37.17;;
46931;SDS011;32670;51.464;11.964;2022-09-09T13:37:02;46.07;;;41.67;;
46931;SDS011;32670;51.464;11.964;2022-09-09T13:39:36;43.20;;;39.00;;
46931;SDS011;32670;51.464;11.964;2022-09-09T13:42:02;42.63;;;38.47;;
46931;SDS011;32670;51.464;11.964;2022-09-09T13:44:30;45.30;;;40.73;;
46931;SDS011;32670;51.464;11.964;2022-09-09T13:47:04;40.20;;;36.23;;
46931;SDS011;32670;51.464;11.964;2022-09-09T13:49:39;46.47;;;41.87;;
46931;SDS011;32670;51.464;11.964;2022-09-09T13:52:08;45.17;;;40.73;;
46931;SDS011;32670;51.464;11.964;2022-09-09T13:54:36;42.40;;;38.23;;
46931;SDS011;32670;51.464;11.964;2022-09-09T13:57:02;46.73;;;42.27;;
46931;SDS011;32670;51.464;11.964;2022-09-09T13:59:29;39.27;;;35.43;;
46931;SDS011;32670;51.464;11.964;2022-09-09T14:01:56;38.57;;;34.77;;
46931;SDS011;32670;51.464;11.964;2022-09-09T14:04:22;46.73;;;42.23;;
46931;SDS011;32670;51.464;11.964;2022-09-09T14:06:47;44.73;;;40.03;;
46931;SDS011;32670;51.464;11.964;2022-09-09T14:09:14;50.00;;;45.07;;
46931;SDS011;32670;51.464;11.964;2022-09-09T14:11:41;44.83;;;40.63;;
46931;SDS011;32670;51.464;11.964;2022-09-09T14:14:07;44.90;;;40.80;;
46931;SDS011;32670;51.464;11.964;2022-09-09T14:16:33;38.63;;;34.97;;
46931;SDS011;32670;51.464;11.964;2022-09-09T14:18:59;44.27;;;39.93;;
46931;SDS011;32670;51.464;11.964;2022-09-09T14:21:25;42.97;;;38.80;;
46931;SDS011;32670;51.464;11.964;2022-09-09T14:23:52;43.07;;;38.83;;
46931;SDS011;32670;51.464;11.964;2022-09-09T14:26:18;48.20;;;43.60;;
46931;SDS011;32670;51.464;11.964;2022-09-09T14:28:45;43.40;;;39.13;;
46931;SDS011;32670;51.464;11.964;2022-09-09T14:31:11;39.93;;;36.13;;
46931;SDS011;32670;51.464;11.964;2022-09-09T14:33:38;47.20;;;42.40;;
46931;SDS011;32670;51.464;11.964;2022-09-09T14:36:04;42.20;;;38.00;;
46931;SDS011;32670;51.464;11.964;2022-09-09T14:38:30;48.60;;;43.77;;
46931;SDS011;32670;51.464;11.964;2022-09-09T14:41:09;35.00;;;31.60;;
46931;SDS011;32670;51.464;11.964;2022-09-09T14:43:39;34.60;;;31.07;;
46931;SDS011;32670;51.464;11.964;2022-09-09T14:46:09;32.97;;;29.97;;
46931;SDS011;32670;51.464;11.964;2022-09-09T14:48:36;39.70;;;35.77;;
46931;SDS011;32670;51.464;11.964;2022-09-09T14:51:09;34.03;;;30.80;;
46931;SDS011;32670;51.464;11.964;2022-09-09T14:53:37;37.77;;;34.17;;
46931;SDS011;32670;51.464;11.964;2022-09-09T14:56:14;34.10;;;30.90;;
46931;SDS011;32670;51.464;11.964;2022-09-09T14:58:44;36.50;;;33.00;;
46931;SDS011;32670;51.464;11.964;2022-09-09T15:01:13;35.23;;;32.00;;
46931;SDS011;32670;51.464;11.964;2022-09-09T15:03:40;37.70;;;34.20;;
46931;SDS011;32670;51.464;11.964;2022-09-09T15:06:08;37.60;;;34.07;;
46931;SDS011;32670;51.464;11.964;2022-09-09T15:08:38;39.67;;;35.67;;
46931;SDS011;32670;51.464;11.964;2022-09-09T15:11:08;37.90;;;34.20;;
46931;SDS011;32670;51.464;11.964;2022-09-09T15:13:36;41.83;;;37.80;;
46931;SDS011;32670;51.464;11.964;2022-09-09T15:16:06;43.27;;;39.17;;
46931;SDS011;32670;51.464;11.964;2022-09-09T15:18:33;36.10;;;32.67;;
46931;SDS011;32670;51.464;11.964;2022-09-09T15:21:01;36.70;;;33.20;;
46931;SDS011;32670;51.464;11.964;2022-09-09T15:23:34;39.73;;;35.93;;
46931;SDS011;32670;51.464;11.964;2022-09-09T15:26:00;37.50;;;33.80;;
46931;SDS011;32670;51.464;11.964;2022-09-09T15:28:27;40.20;;;36.20;;
46931;SDS011;32670;51.464;11.964;2022-09-09T15:30:53;38.67;;;34.77;;
46931;SDS011;32670;51.464;11.964;2022-09-09T15:33:20;35.63;;;32.27;;
46931;SDS011;32670;51.464;11.964;2022-09-09T15:35:46;35.87;;;32.47;;
46931;SDS011;32670;51.464;11.964;2022-09-09T15:38:12;34.73;;;31.47;;
46931;SDS011;32670;51.464;11.964;2022-09-09T15:40:38;36.43;;;33.00;;
46931;SDS011;32670;51.464;11.964;2022-09-09T15:43:04;36.63;;;32.90;;
46931;SDS011;32670;51.464;11.964;2022-09-09T15:45:31;33.20;;;29.80;;
46931;SDS011;32670;51.464;11.964;2022-09-09T15:47:58;32.50;;;29.50;;
46931;SDS011;32670;51.464;11.964;2022-09-09T15:50:27;31.73;;;28.53;;
46931;SDS011;32670;51.464;11.964;2022-09-09T15:52:53;31.10;;;28.13;;